Weather at Tyendinaga Mohawk Airport

Public forecast

Using degrees Celsius for public forecast. Weather courtesy of forecast.io.

Closest aviation weather report (METAR) to Tyendinaga Mohawk Airport

Closest report is CFB Trenton, 18.5 nm (34.3 km) WSW.

2024/05/25 10:00 (retrieved 1 hour ago)

CYTR 251000Z 04005KT 15SM FEW150 SCT300 09/07 A2987 RMK AC1CI3 DENSITY ALT -224FT SLP116

Closest aviation forecast (TAF) to Tyendinaga Mohawk Airport

Closest forecast is CFB Trenton, 18.5 nm (34.3 km) WSW.

2024/05/25 06:42 (retrieved 4 hours ago)

TAF CYTR 250540Z 2506/2606 06005KT P6SM SCT250 FM251100 05005KT P6SM FEW150 BKN250 BECMG 2514/2516 12005KT FM251600 12005KT P6SM BKN100 BKN180 TEMPO 2517/2524 6SM -SHRA BR BKN050 FM260000 VRB03KT P6SM SCT050 RMK NXT FCST BY 251200Z